createdAt,value
2022-08-17T00:00:53.161Z,52.95
2022-08-17T00:01:54.671Z,53.29
2022-08-17T00:03:03.402Z,53.00
2022-08-17T00:04:09.286Z,52.80
2022-08-17T00:05:15.540Z,52.98
2022-08-17T00:06:19.959Z,52.76
2022-08-17T00:07:21.474Z,53.34
2022-08-17T00:08:25.267Z,53.28
2022-08-17T00:09:26.822Z,53.99
2022-08-17T00:10:28.415Z,53.23
2022-08-17T00:11:37.956Z,53.39
2022-08-17T00:12:43.983Z,53.46
2022-08-17T00:13:48.651Z,53.29
2022-08-17T00:14:50.156Z,53.03
2022-08-17T00:15:54.302Z,53.04
2022-08-17T00:16:57.240Z,52.90
2022-08-17T00:17:59.190Z,52.62
2022-08-17T00:19:08.498Z,52.76
2022-08-17T00:20:11.172Z,52.60
2022-08-17T00:21:15.655Z,52.84
2022-08-17T00:22:34.465Z,52.77
2022-08-17T00:23:39.266Z,52.71
2022-08-17T00:24:46.063Z,52.68
2022-08-17T00:25:48.108Z,52.70
2022-08-17T00:26:51.081Z,52.52
2022-08-17T00:27:52.566Z,52.61
2022-08-17T00:28:56.422Z,52.30
2022-08-17T00:29:57.898Z,52.23
2022-08-17T00:30:59.840Z,52.66
2022-08-17T00:32:01.728Z,52.64
2022-08-17T00:33:27.298Z,52.39
2022-08-17T00:34:29.011Z,52.33
2022-08-17T00:35:33.659Z,52.46
2022-08-17T00:36:35.165Z,52.57
2022-08-17T00:37:36.711Z,52.54
2022-08-17T00:38:38.489Z,52.38
2022-08-17T00:39:40.073Z,52.43
2022-08-17T00:40:44.947Z,52.92
2022-08-17T00:41:46.619Z,53.02
2022-08-17T00:42:49.751Z,53.64
2022-08-17T00:43:54.850Z,53.27
2022-08-17T00:44:56.558Z,53.27
2022-08-17T00:45:59.190Z,53.92
2022-08-17T00:47:00.665Z,54.17
2022-08-17T00:48:02.409Z,53.60
2022-08-17T00:49:04.506Z,53.47
2022-08-17T00:50:10.435Z,53.75
2022-08-17T00:51:29.522Z,53.93
2022-08-17T00:52:37.060Z,53.69
2022-08-17T00:53:42.562Z,53.53
2022-08-17T00:54:48.941Z,53.60
2022-08-17T00:55:50.742Z,53.86
2022-08-17T00:56:55.031Z,54.11
2022-08-17T00:58:00.101Z,55.23
2022-08-17T00:59:05.082Z,55.48
2022-08-17T01:00:11.905Z,55.68
2022-08-17T01:01:21.474Z,55.44
2022-08-17T01:02:24.359Z,55.79
2022-08-17T01:03:26.238Z,56.48
2022-08-17T01:04:29.793Z,56.58
2022-08-17T01:05:34.256Z,56.43
2022-08-17T01:06:36.089Z,56.98
2022-08-17T01:07:38.113Z,57.95
2022-08-17T01:08:40.218Z,57.39
2022-08-17T01:09:43.322Z,57.81
2022-08-17T01:10:59.865Z,58.01
2022-08-17T01:12:03.876Z,58.55
2022-08-17T01:13:06.969Z,58.17
2022-08-17T01:14:08.772Z,58.67
2022-08-17T01:15:11.325Z,59.15
2022-08-17T01:16:17.635Z,59.81
2022-08-17T01:17:19.123Z,60.11
2022-08-17T01:18:20.971Z,60.48
2022-08-17T01:19:25.777Z,60.69
2022-08-17T01:20:27.403Z,60.64
2022-08-17T01:21:38.097Z,60.31
2022-08-17T01:22:40.971Z,59.71
2022-08-17T01:23:42.460Z,59.83
2022-08-17T01:24:46.856Z,58.79
2022-08-17T01:25:50.286Z,58.39
2022-08-17T01:26:51.777Z,58.02
2022-08-17T01:27:53.492Z,57.36
2022-08-17T01:28:56.008Z,57.65
2022-08-17T01:30:01.568Z,57.31
2022-08-17T01:31:06.059Z,56.70
2022-08-17T01:32:08.898Z,56.19
2022-08-17T01:33:10.844Z,56.50
2022-08-17T01:34:14.534Z,57.14
2022-08-17T01:35:16.051Z,57.35
2022-08-17T01:36:18.060Z,57.76
2022-08-17T01:37:20.904Z,58.25
2022-08-17T01:38:27.053Z,59.38
2022-08-17T01:39:31.864Z,59.46
2022-08-17T01:40:36.311Z,60.21
2022-08-17T01:41:39.917Z,60.40
2022-08-17T01:42:44.326Z,60.79
2022-08-17T01:43:49.656Z,60.89
2022-08-17T01:44:56.123Z,61.06
2022-08-17T01:46:02.697Z,61.42
2022-08-17T01:47:05.822Z,61.33
2022-08-17T01:48:07.316Z,60.71
2022-08-17T01:49:11.205Z,60.79
2022-08-17T01:50:16.745Z,61.02
2022-08-17T01:51:18.978Z,61.10
2022-08-17T01:52:20.888Z,61.52
2022-08-17T01:53:27.425Z,62.12
2022-08-17T01:54:29.186Z,62.33
2022-08-17T01:55:35.923Z,62.70
2022-08-17T01:56:42.233Z,62.75
2022-08-17T01:57:43.702Z,62.30
2022-08-17T01:58:45.273Z,62.31
2022-08-17T01:59:46.867Z,62.93
2022-08-17T02:00:59.853Z,63.27
2022-08-17T02:02:01.927Z,63.29
2022-08-17T02:03:04.135Z,63.21
2022-08-17T02:04:06.585Z,63.34
2022-08-17T02:05:08.704Z,63.25
2022-08-17T02:06:27.875Z,63.30
2022-08-17T02:07:29.872Z,63.74
2022-08-17T02:08:38.896Z,63.84
2022-08-17T02:09:42.138Z,63.03
2022-08-17T02:10:46.843Z,63.37
2022-08-17T02:11:48.421Z,63.74
2022-08-17T02:12:52.234Z,63.68
2022-08-17T02:14:02.355Z,64.28
2022-08-17T02:15:06.293Z,64.19
2022-08-17T02:16:07.843Z,64.12
2022-08-17T02:17:09.375Z,65.02
2022-08-17T02:18:11.943Z,65.22
2022-08-17T02:19:15.376Z,64.60
2022-08-17T02:20:16.893Z,65.12
2022-08-17T02:21:40.047Z,65.37
2022-08-17T02:22:45.699Z,64.81
2022-08-17T02:23:49.394Z,65.11
2022-08-17T02:25:01.252Z,65.67
2022-08-17T02:26:04.325Z,65.52
2022-08-17T02:27:06.257Z,65.49
2022-08-17T02:28:07.732Z,65.31
2022-08-17T02:29:09.263Z,65.39
2022-08-17T02:30:59.954Z,65.23
2022-08-17T02:31:35.614Z,66.24
2022-08-17T02:32:37.508Z,66.59
2022-08-17T02:33:41.804Z,67.07
2022-08-17T02:34:44.801Z,67.50
2022-08-17T02:35:46.454Z,67.99
2022-08-17T02:36:47.909Z,67.61
2022-08-17T02:37:51.865Z,67.56
2022-08-17T02:38:58.652Z,67.29
2022-08-17T02:40:00.528Z,66.88
2022-08-17T02:41:02.242Z,66.62
2022-08-17T02:42:04.475Z,66.67
2022-08-17T02:43:06.661Z,66.11
2022-08-17T02:44:08.174Z,66.07
2022-08-17T02:45:13.558Z,65.49
2022-08-17T02:46:15.105Z,65.42
2022-08-17T02:47:16.591Z,64.78
2022-08-17T02:48:30.643Z,65.35
2022-08-17T02:49:33.396Z,64.91
2022-08-17T02:50:34.914Z,65.36
2022-08-17T02:51:36.443Z,65.95
2022-08-17T02:52:43.744Z,66.36
2022-08-17T02:53:45.854Z,67.12
2022-08-17T02:54:48.711Z,67.11
2022-08-17T02:55:50.192Z,67.84
2022-08-17T02:56:53.261Z,67.17
2022-08-17T02:57:55.000Z,67.34
2022-08-17T02:58:56.524Z,67.47
2022-08-17T02:59:58.015Z,67.31
2022-08-17T03:00:59.514Z,67.57
2022-08-17T03:02:02.772Z,67.27
2022-08-17T03:03:05.840Z,67.22
2022-08-17T03:04:07.407Z,66.92
2022-08-17T03:05:11.311Z,67.24
2022-08-17T03:06:12.811Z,66.17
2022-08-17T03:07:14.371Z,66.65
2022-08-17T03:08:16.363Z,66.68
2022-08-17T03:09:17.843Z,65.82
2022-08-17T03:10:21.319Z,65.99
2022-08-17T03:11:22.881Z,65.73
2022-08-17T03:12:24.348Z,66.27
2022-08-17T03:13:26.054Z,65.81
2022-08-17T03:14:27.564Z,66.25
2022-08-17T03:15:31.741Z,66.43
2022-08-17T03:16:33.254Z,65.14
2022-08-17T03:17:36.232Z,66.31
2022-08-17T03:18:37.789Z,66.59
2022-08-17T03:19:42.978Z,66.94
2022-08-17T03:20:44.875Z,67.05
2022-08-17T03:21:46.387Z,66.84
2022-08-17T03:23:01.882Z,66.97
2022-08-17T03:24:08.906Z,67.43
2022-08-17T03:25:13.275Z,66.91
2022-08-17T03:26:22.339Z,67.11
2022-08-17T03:27:23.807Z,67.28
2022-08-17T03:28:25.930Z,66.84
2022-08-17T03:29:27.427Z,66.83
2022-08-17T03:30:29.573Z,66.29
2022-08-17T03:31:31.094Z,66.56
2022-08-17T03:32:37.875Z,66.61
2022-08-17T03:33:39.457Z,66.91
2022-08-17T03:34:41.042Z,67.04
2022-08-17T03:35:42.602Z,66.72
2022-08-17T03:36:44.420Z,66.78
2022-08-17T03:37:46.394Z,67.02
2022-08-17T03:38:47.929Z,66.57
2022-08-17T03:39:52.789Z,66.04
2022-08-17T03:40:56.673Z,66.25
2022-08-17T03:42:06.810Z,66.42
2022-08-17T03:43:09.956Z,65.80
2022-08-17T03:44:11.419Z,65.99
2022-08-17T03:45:16.655Z,65.60
2022-08-17T03:46:27.915Z,65.02
2022-08-17T03:47:30.646Z,64.91
2022-08-17T03:48:32.595Z,64.57
2022-08-17T03:49:34.104Z,64.75
2022-08-17T03:50:35.614Z,65.29
2022-08-17T03:51:37.120Z,65.36
2022-08-17T03:52:38.608Z,65.26
2022-08-17T03:53:48.286Z,64.90
2022-08-17T03:54:49.795Z,64.83
2022-08-17T03:55:51.452Z,65.25
2022-08-17T03:56:59.837Z,65.22
2022-08-17T03:58:02.643Z,65.21
2022-08-17T03:59:04.151Z,65.50
2022-08-17T04:00:07.320Z,65.90
2022-08-17T04:01:09.576Z,65.92
2022-08-17T04:02:15.483Z,66.06
2022-08-17T04:03:17.770Z,65.89
2022-08-17T04:04:20.979Z,65.72
2022-08-17T04:05:29.346Z,65.59
2022-08-17T04:06:30.812Z,65.79
2022-08-17T04:07:32.342Z,65.91
2022-08-17T04:08:33.917Z,65.71
2022-08-17T04:09:35.868Z,65.60
2022-08-17T04:10:38.563Z,65.45
2022-08-17T04:11:46.525Z,65.20
2022-08-17T04:12:51.316Z,65.20
2022-08-17T04:13:54.321Z,65.05
2022-08-17T04:14:55.971Z,64.74
2022-08-17T04:15:57.437Z,64.62
2022-08-17T04:16:58.895Z,64.91
2022-08-17T04:18:00.535Z,64.63
2022-08-17T04:19:02.849Z,64.85
2022-08-17T04:20:05.116Z,64.68
2022-08-17T04:21:08.771Z,64.16
2022-08-17T04:22:10.263Z,64.24
2022-08-17T04:23:31.736Z,64.42
2022-08-17T04:24:34.305Z,64.16
2022-08-17T04:25:39.256Z,64.41
2022-08-17T04:26:53.631Z,64.12
2022-08-17T04:27:56.707Z,63.74
2022-08-17T04:28:59.854Z,64.21
2022-08-17T04:30:01.910Z,64.32
2022-08-17T04:31:03.624Z,64.43
2022-08-17T04:32:05.905Z,64.56
2022-08-17T04:33:09.832Z,64.42
2022-08-17T04:34:11.524Z,63.98
2022-08-17T04:35:17.930Z,63.35
2022-08-17T04:36:19.569Z,63.52
2022-08-17T04:37:21.058Z,63.49
2022-08-17T04:38:25.100Z,63.75
2022-08-17T04:39:26.638Z,63.30
2022-08-17T04:40:28.499Z,63.81
2022-08-17T04:41:30.315Z,64.16
2022-08-17T04:42:31.777Z,64.47
2022-08-17T04:43:35.772Z,64.71
2022-08-17T04:44:38.610Z,64.93
2022-08-17T04:45:54.984Z,65.51
2022-08-17T04:46:57.963Z,65.74
2022-08-17T04:48:00.961Z,66.20
2022-08-17T04:49:05.906Z,65.88
2022-08-17T04:50:08.444Z,65.90
2022-08-17T04:51:12.401Z,65.84
2022-08-17T04:52:29.675Z,65.67
2022-08-17T04:53:35.761Z,65.28
2022-08-17T04:54:37.231Z,65.31
2022-08-17T04:55:39.506Z,65.11
2022-08-17T04:56:41.287Z,64.94
2022-08-17T04:57:45.091Z,64.96
2022-08-17T04:58:52.349Z,64.35
2022-08-17T04:59:55.170Z,64.50
2022-08-17T05:00:56.724Z,63.60
2022-08-17T05:01:58.275Z,63.48
2022-08-17T05:02:59.860Z,63.54
2022-08-17T05:04:21.127Z,63.67
2022-08-17T05:05:29.662Z,64.01
2022-08-17T05:06:32.927Z,64.33
2022-08-17T05:07:34.854Z,64.83
2022-08-17T05:08:38.613Z,65.23
2022-08-17T05:09:40.072Z,65.32
2022-08-17T05:10:45.189Z,65.82
2022-08-17T05:11:47.346Z,66.29
2022-08-17T05:12:57.273Z,66.35
2022-08-17T05:13:59.070Z,66.44
2022-08-17T05:15:01.902Z,66.28
2022-08-17T05:16:04.203Z,66.34
2022-08-17T05:17:09.352Z,66.54
2022-08-17T05:18:13.139Z,66.47
2022-08-17T05:19:14.593Z,66.13
2022-08-17T05:20:16.182Z,66.63
2022-08-17T05:21:18.995Z,65.91
2022-08-17T05:22:20.549Z,65.99
2022-08-17T05:23:24.573Z,65.39
2022-08-17T05:24:40.753Z,64.42
2022-08-17T05:25:47.962Z,64.51
2022-08-17T05:26:49.489Z,65.69
2022-08-17T05:27:51.690Z,64.04
2022-08-17T05:28:53.830Z,63.90
2022-08-17T05:29:55.713Z,63.77
2022-08-17T05:31:01.239Z,64.03
2022-08-17T05:32:37.446Z,64.47
2022-08-17T05:33:35.120Z,65.10
2022-08-17T05:34:36.580Z,63.17
2022-08-17T05:35:43.016Z,63.69
2022-08-17T05:36:44.661Z,63.71
2022-08-17T05:37:46.281Z,62.46
2022-08-17T05:38:47.750Z,60.47
2022-08-17T05:39:49.278Z,61.98
2022-08-17T05:40:51.665Z,61.88
2022-08-17T05:41:53.157Z,61.38
2022-08-17T05:43:04.973Z,61.71
2022-08-17T05:44:06.468Z,61.23
2022-08-17T05:45:09.244Z,61.84
2022-08-17T05:46:20.148Z,61.25
2022-08-17T05:47:24.114Z,60.38
2022-08-17T05:48:36.794Z,60.77
2022-08-17T05:49:41.430Z,59.31
2022-08-17T05:50:50.916Z,58.53
2022-08-17T05:52:10.186Z,58.64
2022-08-17T05:53:21.587Z,60.04
2022-08-17T05:54:38.792Z,57.81
2022-08-17T05:55:48.870Z,58.96
2022-08-17T05:57:13.638Z,56.58
2022-08-17T05:58:23.805Z,56.87
2022-08-17T05:59:34.977Z,57.27
2022-08-17T06:00:42.989Z,56.41
2022-08-17T06:01:55.976Z,57.46
2022-08-17T06:03:32.996Z,57.81
2022-08-17T06:05:00.414Z,55.37
2022-08-17T06:06:17.285Z,55.69
2022-08-17T06:07:36.306Z,55.96
2022-08-17T06:08:51.633Z,55.79
2022-08-17T06:10:00.206Z,57.38
2022-08-17T06:11:10.282Z,56.66
2022-08-17T06:12:36.261Z,54.58
2022-08-17T06:13:52.202Z,54.87
2022-08-17T06:15:04.074Z,53.72
2022-08-17T06:16:33.859Z,53.59
2022-08-17T06:17:36.193Z,52.62
2022-08-17T06:18:45.402Z,53.79
2022-08-17T06:19:52.543Z,55.64
2022-08-17T06:20:58.360Z,57.80
2022-08-17T06:22:00.269Z,57.57
2022-08-17T06:23:08.556Z,55.35
2022-08-17T06:24:27.471Z,57.96
2022-08-17T06:25:34.584Z,54.76
2022-08-17T06:26:43.004Z,55.11
2022-08-17T06:27:53.414Z,54.88
2022-08-17T06:29:00.099Z,54.81
2022-08-17T06:30:07.460Z,54.37
2022-08-17T06:31:23.542Z,53.31
2022-08-17T06:32:25.429Z,54.54
2022-08-17T06:33:31.492Z,56.18
2022-08-17T06:34:32.984Z,55.28
2022-08-17T06:35:41.457Z,54.88
2022-08-17T06:36:56.666Z,54.58
2022-08-17T06:38:09.137Z,53.31
2022-08-17T06:39:35.057Z,51.01
2022-08-17T06:40:49.474Z,51.83
2022-08-17T06:42:01.166Z,49.91
2022-08-17T06:43:15.523Z,49.46
2022-08-17T06:44:43.237Z,49.21
2022-08-17T06:45:45.550Z,49.81
2022-08-17T06:46:50.884Z,49.16
2022-08-17T06:47:59.261Z,49.93
2022-08-17T06:49:14.160Z,49.15
2022-08-17T06:50:19.833Z,48.31
2022-08-17T06:51:24.969Z,49.54
2022-08-17T06:52:45.471Z,50.65
2022-08-17T06:53:59.812Z,51.74
2022-08-17T06:55:05.318Z,53.21
2022-08-17T06:56:09.470Z,52.07
2022-08-17T06:57:17.976Z,52.41
2022-08-17T06:58:23.453Z,51.64
2022-08-17T06:59:55.257Z,52.54
2022-08-17T07:01:03.540Z,54.07
2022-08-17T07:02:08.479Z,53.07
2022-08-17T07:03:15.430Z,52.55
2022-08-17T07:04:23.029Z,52.38
2022-08-17T07:05:28.050Z,54.46
2022-08-17T07:06:37.714Z,53.59
2022-08-17T07:07:47.569Z,52.19
2022-08-17T07:08:55.746Z,52.45
2022-08-17T07:10:00.904Z,52.75
2022-08-17T07:11:06.748Z,52.19
2022-08-17T07:12:14.835Z,54.50
2022-08-17T07:13:33.928Z,50.79
2022-08-17T07:14:39.450Z,50.50
2022-08-17T07:15:42.831Z,48.91
2022-08-17T07:16:48.665Z,51.28
2022-08-17T07:17:50.548Z,50.86
2022-08-17T07:18:55.589Z,51.56
2022-08-17T07:20:04.882Z,50.76
2022-08-17T07:21:17.523Z,48.63
2022-08-17T07:22:25.449Z,48.44
2022-08-17T07:23:52.278Z,47.50
2022-08-17T07:24:55.915Z,49.86
2022-08-17T07:26:04.205Z,51.13
2022-08-17T07:27:09.946Z,49.42
2022-08-17T07:28:11.419Z,50.36
2022-08-17T07:29:17.468Z,52.98
2022-08-17T07:30:24.569Z,50.71
2022-08-17T07:31:28.892Z,48.77
2022-08-17T07:32:34.146Z,52.04
2022-08-17T07:33:35.910Z,51.87
2022-08-17T07:35:10.804Z,51.16
2022-08-17T07:36:29.172Z,48.87
2022-08-17T07:37:31.418Z,48.88
2022-08-17T07:38:34.587Z,50.09
2022-08-17T07:39:36.156Z,49.73
2022-08-17T07:41:01.501Z,49.52
2022-08-17T07:42:04.997Z,51.63
2022-08-17T07:43:21.842Z,51.36
2022-08-17T07:44:24.776Z,50.99
2022-08-17T07:45:26.370Z,51.76
2022-08-17T07:46:33.109Z,52.83
2022-08-17T07:47:34.598Z,50.51
2022-08-17T07:48:37.904Z,53.43
2022-08-17T07:49:42.004Z,51.72
2022-08-17T07:50:49.307Z,48.75
2022-08-17T07:51:59.976Z,50.75
2022-08-17T07:53:16.929Z,48.85
2022-08-17T07:54:21.999Z,48.82
2022-08-17T07:55:28.991Z,46.83
2022-08-17T07:56:34.929Z,47.79
2022-08-17T07:57:36.505Z,46.04
2022-08-17T07:58:37.961Z,44.91
2022-08-17T07:59:43.206Z,46.52
2022-08-17T08:00:45.752Z,43.79
2022-08-17T08:01:58.477Z,43.81
2022-08-17T08:03:12.260Z,43.78
2022-08-17T08:04:49.988Z,40.89
2022-08-17T08:05:51.573Z,41.64
2022-08-17T08:06:56.999Z,43.62
2022-08-17T08:08:01.886Z,42.09
2022-08-17T08:09:03.581Z,44.50
2022-08-17T08:10:09.654Z,46.85
2022-08-17T08:11:13.818Z,48.86
2022-08-17T08:12:33.964Z,49.34
2022-08-17T08:13:37.567Z,48.92
2022-08-17T08:14:39.108Z,48.91
2022-08-17T08:15:45.141Z,48.77
2022-08-17T08:16:58.358Z,48.25
2022-08-17T08:18:02.355Z,48.28
2022-08-17T08:19:04.942Z,48.28
2022-08-17T08:20:47.643Z,47.92
2022-08-17T08:21:48.908Z,48.11
2022-08-17T08:22:59.133Z,48.11
2022-08-17T08:24:19.282Z,48.84
2022-08-17T08:25:30.187Z,48.86
2022-08-17T08:26:37.195Z,48.70
2022-08-17T08:27:49.491Z,49.53
2022-08-17T08:28:59.321Z,49.56
2022-08-17T08:30:06.713Z,48.92
2022-08-17T08:31:18.620Z,49.08
2022-08-17T08:32:42.058Z,48.71
2022-08-17T08:33:55.177Z,48.21
2022-08-17T08:35:04.060Z,48.78
2022-08-17T08:36:56.634Z,48.67
2022-08-17T08:37:47.334Z,48.79
2022-08-17T08:38:55.766Z,49.36
2022-08-17T08:40:08.149Z,50.06
2022-08-17T08:41:36.099Z,49.60
2022-08-17T08:42:44.613Z,49.24
2022-08-17T08:43:55.084Z,49.07
2022-08-17T08:45:05.523Z,48.40
2022-08-17T08:46:19.806Z,48.16
2022-08-17T08:47:35.539Z,47.77
2022-08-17T08:49:14.536Z,47.18
2022-08-17T08:50:37.167Z,47.16
2022-08-17T08:51:51.759Z,46.85
2022-08-17T08:53:12.455Z,47.55
2022-08-17T08:54:26.912Z,47.58
2022-08-17T08:55:42.155Z,47.51
2022-08-17T08:57:19.480Z,48.23
2022-08-17T08:58:31.617Z,47.35
2022-08-17T08:59:57.846Z,47.55
2022-08-17T09:01:03.633Z,47.75
2022-08-17T09:02:23.825Z,46.89
2022-08-17T09:03:53.168Z,47.23
2022-08-17T09:05:15.251Z,46.93
2022-08-17T09:06:37.866Z,46.55
2022-08-17T09:07:48.551Z,46.08
2022-08-17T09:09:03.570Z,45.37
2022-08-17T09:10:11.442Z,44.38
2022-08-17T09:11:19.434Z,44.00
2022-08-17T09:12:30.657Z,45.34
2022-08-17T09:13:38.786Z,45.88
2022-08-17T09:14:50.003Z,46.34
2022-08-17T09:15:54.705Z,45.72
2022-08-17T09:17:03.038Z,46.08
2022-08-17T09:19:00.458Z,46.34
2022-08-17T09:19:37.924Z,45.73
2022-08-17T09:20:50.230Z,45.78
2022-08-17T09:21:54.811Z,45.90
2022-08-17T09:23:02.302Z,45.46
2022-08-17T09:24:11.182Z,45.15
2022-08-17T09:25:17.013Z,44.46
2022-08-17T09:26:24.054Z,44.84
2022-08-17T09:27:32.857Z,44.68
2022-08-17T09:28:37.026Z,44.58
2022-08-17T09:29:43.346Z,44.98
2022-08-17T09:30:47.200Z,43.87
2022-08-17T09:31:54.214Z,43.80
2022-08-17T09:32:59.715Z,43.85
2022-08-17T09:34:05.245Z,43.64
2022-08-17T09:35:15.292Z,44.79
2022-08-17T09:36:22.903Z,45.24
2022-08-17T09:37:32.317Z,44.85
2022-08-17T09:38:45.440Z,45.41
2022-08-17T09:39:58.239Z,46.34
2022-08-17T09:41:09.313Z,46.37
2022-08-17T09:42:17.509Z,46.26
2022-08-17T09:43:31.602Z,46.92
2022-08-17T09:44:38.749Z,46.92
2022-08-17T09:45:45.067Z,46.36
2022-08-17T09:46:50.610Z,46.98
2022-08-17T09:47:57.812Z,46.86
2022-08-17T09:49:06.526Z,46.75
2022-08-17T09:50:13.416Z,47.12
2022-08-17T09:51:21.301Z,46.90
2022-08-17T09:52:26.205Z,46.33
2022-08-17T09:53:31.928Z,46.29
2022-08-17T09:54:40.285Z,47.03
2022-08-17T09:56:03.335Z,46.23
2022-08-17T09:57:31.780Z,45.29
2022-08-17T09:58:46.960Z,46.19
2022-08-17T10:00:02.281Z,46.08
2022-08-17T10:01:16.788Z,46.71
2022-08-17T10:02:39.566Z,46.42
2022-08-17T10:04:09.816Z,46.52
2022-08-17T10:05:16.901Z,46.43
2022-08-17T10:06:23.765Z,46.87
2022-08-17T10:07:33.894Z,46.42
2022-08-17T10:08:41.973Z,46.22
2022-08-17T10:09:55.948Z,45.94
2022-08-17T10:11:11.375Z,45.51
2022-08-17T10:12:28.296Z,45.71
2022-08-17T10:13:40.205Z,45.15
2022-08-17T10:15:14.738Z,44.12
2022-08-17T10:16:25.488Z,45.29
2022-08-17T10:17:35.041Z,45.65
2022-08-17T10:18:48.292Z,48.13
2022-08-17T10:19:58.211Z,46.25
2022-08-17T10:21:02.906Z,44.52
2022-08-17T10:22:14.546Z,46.57
2022-08-17T10:23:22.221Z,45.25
2022-08-17T10:24:29.249Z,46.72
2022-08-17T10:25:49.017Z,45.43
2022-08-17T10:26:58.502Z,46.85
2022-08-17T10:28:06.640Z,46.37
2022-08-17T10:29:13.366Z,46.77
2022-08-17T10:30:17.621Z,45.55
2022-08-17T10:31:40.060Z,45.82
2022-08-17T10:32:48.340Z,46.32
2022-08-17T10:34:07.220Z,45.98
2022-08-17T10:35:29.016Z,45.49
2022-08-17T10:36:42.467Z,47.68
2022-08-17T10:38:08.397Z,46.31
2022-08-17T10:39:22.159Z,47.62
2022-08-17T10:40:33.159Z,47.72
2022-08-17T10:41:44.560Z,48.33
2022-08-17T10:42:51.480Z,50.58
2022-08-17T10:44:40.456Z,49.21
2022-08-17T10:45:30.792Z,49.33
2022-08-17T10:46:46.389Z,50.52
2022-08-17T10:48:04.828Z,50.11
2022-08-17T10:49:28.767Z,49.99
2022-08-17T10:50:47.773Z,51.01
2022-08-17T10:51:51.310Z,49.27
2022-08-17T10:52:52.866Z,49.32
2022-08-17T10:53:57.270Z,51.12
2022-08-17T10:55:18.652Z,49.38
2022-08-17T10:56:39.629Z,49.07
2022-08-17T10:57:43.418Z,49.42
2022-08-17T10:58:49.262Z,49.16
2022-08-17T10:59:53.198Z,49.34
2022-08-17T11:00:59.154Z,48.06
2022-08-17T11:02:12.817Z,48.40
2022-08-17T11:03:18.572Z,48.96
2022-08-17T11:04:27.968Z,48.02
2022-08-17T11:05:51.185Z,46.92
2022-08-17T11:07:07.231Z,47.63
2022-08-17T11:08:50.466Z,46.74
2022-08-17T11:10:13.617Z,45.98
2022-08-17T11:11:51.348Z,45.05
2022-08-17T11:13:01.256Z,46.54
2022-08-17T11:14:25.461Z,45.29
2022-08-17T11:15:42.608Z,46.65
2022-08-17T11:17:04.758Z,46.78
2022-08-17T11:18:20.863Z,44.91
2022-08-17T11:19:52.337Z,44.26
2022-08-17T11:21:17.875Z,44.41
2022-08-17T11:22:58.149Z,43.51
2022-08-17T11:24:18.910Z,44.52
2022-08-17T11:25:33.718Z,46.15
2022-08-17T11:26:38.541Z,43.92
2022-08-17T11:27:40.585Z,45.01
2022-08-17T11:28:52.443Z,45.00
2022-08-17T11:30:02.274Z,44.26
2022-08-17T11:31:08.554Z,44.29
2022-08-17T11:32:27.741Z,45.23
2022-08-17T11:34:02.566Z,45.37
2022-08-17T11:35:21.181Z,45.69
2022-08-17T11:36:35.077Z,45.81
2022-08-17T11:37:46.407Z,45.50
2022-08-17T11:38:53.249Z,44.16
2022-08-17T11:40:25.288Z,45.09
2022-08-17T11:41:36.480Z,42.14
2022-08-17T11:42:55.548Z,44.45
2022-08-17T11:44:09.722Z,44.26
2022-08-17T11:45:32.450Z,45.04
2022-08-17T11:46:51.886Z,44.60
2022-08-17T11:48:26.042Z,44.18
2022-08-17T11:49:31.771Z,45.52
2022-08-17T11:50:46.210Z,45.41
2022-08-17T11:52:10.296Z,44.01
2022-08-17T11:54:32.849Z,42.71
2022-08-17T11:56:04.157Z,46.13
2022-08-17T11:57:39.136Z,45.09
2022-08-17T11:58:42.382Z,44.57
2022-08-17T11:59:59.028Z,45.24
2022-08-17T12:01:03.264Z,44.99
2022-08-17T12:02:36.224Z,43.49
2022-08-17T12:03:55.620Z,46.06
2022-08-17T12:05:09.641Z,43.39
2022-08-17T12:06:30.742Z,43.61
2022-08-17T12:07:34.216Z,44.76
2022-08-17T12:08:40.880Z,46.21
2022-08-17T12:09:45.856Z,46.56
2022-08-17T12:10:59.424Z,43.99
2022-08-17T12:12:12.841Z,45.72
2022-08-17T12:13:17.762Z,44.28
2022-08-17T12:14:35.685Z,44.05
2022-08-17T12:15:48.761Z,44.68
2022-08-17T12:17:05.722Z,45.83
2022-08-17T12:18:07.412Z,45.54
2022-08-17T12:19:17.987Z,45.30
2022-08-17T12:20:24.147Z,44.31
2022-08-17T12:21:39.721Z,44.46
2022-08-17T12:22:49.586Z,44.28
2022-08-17T12:23:57.315Z,44.63
2022-08-17T12:25:08.910Z,45.23
2022-08-17T12:26:16.995Z,45.30
2022-08-17T12:27:48.916Z,45.93
2022-08-17T12:28:49.973Z,44.15
2022-08-17T12:29:53.598Z,43.72
2022-08-17T12:30:58.141Z,44.07
2022-08-17T12:32:01.214Z,44.66
2022-08-17T12:33:02.777Z,45.62
2022-08-17T12:34:04.979Z,44.77
2022-08-17T12:35:26.054Z,43.97
2022-08-17T12:36:28.819Z,44.25
2022-08-17T12:37:32.951Z,43.49
2022-08-17T12:38:36.801Z,44.42
2022-08-17T12:39:40.163Z,44.44
2022-08-17T12:40:53.786Z,45.77
2022-08-17T12:42:02.623Z,45.04
2022-08-17T12:43:07.773Z,44.87
2022-08-17T12:44:15.529Z,43.93
2022-08-17T12:45:23.096Z,45.08
2022-08-17T12:46:24.562Z,42.62
2022-08-17T12:47:29.515Z,43.78
2022-08-17T12:48:31.090Z,43.16
2022-08-17T12:49:35.580Z,43.57
2022-08-17T12:50:39.885Z,43.88
2022-08-17T12:51:45.712Z,43.36
2022-08-17T12:52:48.420Z,44.70
2022-08-17T12:53:55.079Z,44.06
2022-08-17T12:54:59.852Z,44.25
2022-08-17T12:56:06.765Z,45.17
2022-08-17T12:57:13.421Z,45.69
2022-08-17T12:58:19.232Z,45.08
2022-08-17T12:59:29.745Z,43.86
2022-08-17T13:00:33.013Z,43.16
2022-08-17T13:01:34.864Z,44.03
2022-08-17T13:02:45.139Z,42.20
2022-08-17T13:03:50.260Z,43.08
2022-08-17T13:04:51.876Z,43.54
2022-08-17T13:05:58.703Z,43.68
2022-08-17T13:07:00.461Z,43.03
2022-08-17T13:08:13.875Z,43.93
2022-08-17T13:09:20.819Z,42.82
2022-08-17T13:10:31.672Z,42.97
2022-08-17T13:11:34.250Z,43.50
2022-08-17T13:12:36.106Z,42.31
2022-08-17T13:13:40.235Z,42.01
2022-08-17T13:14:45.214Z,43.89
2022-08-17T13:15:53.055Z,43.69
2022-08-17T13:17:00.139Z,43.77
2022-08-17T13:18:06.725Z,44.55
2022-08-17T13:19:13.079Z,43.83
2022-08-17T13:20:15.155Z,43.46
2022-08-17T13:21:26.362Z,44.51
2022-08-17T13:22:28.583Z,42.76
2022-08-17T13:23:30.777Z,42.31
2022-08-17T13:24:38.022Z,41.61
2022-08-17T13:25:40.169Z,41.86
2022-08-17T13:26:45.346Z,43.44
2022-08-17T13:27:50.166Z,45.16
2022-08-17T13:28:51.793Z,43.87
2022-08-17T13:29:55.999Z,41.65
2022-08-17T13:31:22.150Z,43.01
2022-08-17T13:32:34.269Z,43.65
2022-08-17T13:33:44.770Z,44.56
2022-08-17T13:35:12.503Z,43.05
2022-08-17T13:36:10.723Z,44.14
2022-08-17T13:37:30.264Z,42.96
2022-08-17T13:38:42.586Z,41.95
2022-08-17T13:39:45.504Z,44.72
2022-08-17T13:40:50.404Z,43.25
2022-08-17T13:41:54.374Z,43.80
2022-08-17T13:42:56.905Z,44.56
2022-08-17T13:43:58.420Z,44.29
2022-08-17T13:45:01.469Z,45.28
2022-08-17T13:46:28.271Z,42.45
2022-08-17T13:47:29.811Z,43.14
2022-08-17T13:48:31.327Z,43.75
2022-08-17T13:49:48.440Z,45.08
2022-08-17T13:51:06.951Z,45.42
2022-08-17T13:52:12.472Z,45.04
2022-08-17T13:53:21.393Z,44.67
2022-08-17T13:54:29.066Z,45.53
2022-08-17T13:55:31.538Z,44.97
2022-08-17T13:57:02.211Z,45.94
2022-08-17T13:58:06.999Z,45.70
2022-08-17T13:59:12.390Z,46.22
2022-08-17T14:00:19.852Z,45.73
2022-08-17T14:01:29.271Z,47.25
2022-08-17T14:02:30.793Z,45.84
2022-08-17T14:03:32.287Z,46.07
2022-08-17T14:04:38.055Z,43.91
2022-08-17T14:05:39.597Z,45.94
2022-08-17T14:06:51.978Z,44.09
2022-08-17T14:07:57.293Z,44.71
2022-08-17T14:08:58.916Z,43.88
2022-08-17T14:10:04.081Z,44.04
2022-08-17T14:11:05.577Z,45.66
2022-08-17T14:12:11.457Z,44.32
2022-08-17T14:13:14.090Z,44.73
2022-08-17T14:14:16.556Z,44.19
2022-08-17T14:15:20.528Z,44.13
2022-08-17T14:16:22.029Z,42.06
2022-08-17T14:17:25.062Z,44.59
2022-08-17T14:18:50.519Z,42.57
2022-08-17T14:19:49.256Z,43.05
2022-08-17T14:20:50.784Z,44.03
2022-08-17T14:21:53.026Z,44.42
2022-08-17T14:22:55.075Z,43.45
2022-08-17T14:23:57.865Z,43.82
2022-08-17T14:25:01.059Z,44.32
2022-08-17T14:26:02.582Z,45.34
2022-08-17T14:27:05.378Z,42.48
2022-08-17T14:28:06.883Z,43.80
2022-08-17T14:29:15.426Z,42.31
2022-08-17T14:30:17.531Z,42.85
2022-08-17T14:31:19.042Z,44.58
2022-08-17T14:32:23.294Z,43.82
2022-08-17T14:33:24.764Z,43.46
2022-08-17T14:34:26.273Z,44.19
2022-08-17T14:35:29.669Z,41.96
2022-08-17T14:36:31.153Z,42.95
2022-08-17T14:37:32.983Z,43.32